Time;durP1;ratioP1;P1;durP2;ratioP2;P2;SDS_P1;SDS_P2;PMS_P1;PMS_P2;Temp;Humidity;BMP_temperature;BMP_pressure;BME280_temperature;BME280_humidity;BME280_pressure;Samples;Min_cycle;Max_cycle;Signal;HPM_P1;HPM_P2
2023/12/14 00:00:18;;;;;;;5.13;3.53;;;;;;;;;;5032231;28;20041;-57
2023/12/14 00:02:43;;;;;;;5.13;3.80;;;;;;;;;;5047529;28;20062;-58
2023/12/14 00:05:08;;;;;;;6.22;4.20;;;;;;;;;;5048396;28;20407;-58
2023/12/14 00:07:34;;;;;;;5.35;3.90;;;;;;;;;;5040849;28;20557;-58
2023/12/14 00:09:59;;;;;;;5.00;4.07;;;;;;;;;;5041411;28;20417;-57
2023/12/14 00:12:24;;;;;;;5.65;3.90;;;;;;;;;;5042719;28;20570;-58
2023/12/14 00:14:50;;;;;;;5.20;4.00;;;;;;;;;;5035970;28;20033;-57
2023/12/14 00:17:15;;;;;;;5.43;4.05;;;;;;;;;;5042081;28;20040;-58
2023/12/14 00:19:40;;;;;;;5.50;4.18;;;;;;;;;;5025389;28;20399;-58
2023/12/14 00:22:05;;;;;;;5.65;4.07;;;;;;;;;;5055357;28;20033;-58
2023/12/14 00:24:31;;;;;;;5.75;4.07;;;;;;;;;;5042483;28;20076;-58
2023/12/14 00:26:56;;;;;;;5.72;4.10;;;;;;;;;;5043695;28;20460;-58
2023/12/14 00:29:21;;;;;;;5.40;4.25;;;;;;;;;;5047932;28;20044;-58
2023/12/14 00:31:47;;;;;;;6.20;4.00;;;;;;;;;;5038297;28;20041;-58
2023/12/14 00:34:12;;;;;;;5.18;4.03;;;;;;;;;;5032098;28;20049;-58
2023/12/14 00:36:37;;;;;;;5.32;4.00;;;;;;;;;;5058061;28;20037;-57
2023/12/14 00:39:03;;;;;;;4.88;3.92;;;;;;;;;;5046627;28;20026;-58
2023/12/14 00:41:29;;;;;;;5.65;4.10;;;;;;;;;;5041596;28;20124;-57
2023/12/14 00:43:54;;;;;;;5.53;4.28;;;;;;;;;;5046145;28;20124;-57
2023/12/14 00:46:19;;;;;;;5.93;4.25;;;;;;;;;;5040862;28;20068;-58
2023/12/14 00:48:45;;;;;;;4.90;3.88;;;;;;;;;;5033757;28;20068;-57
2023/12/14 00:51:10;;;;;;;4.88;3.80;;;;;;;;;;5038640;28;20158;-58
2023/12/14 00:53:35;;;;;;;6.18;4.50;;;;;;;;;;5045003;28;20041;-58
2023/12/14 00:56:00;;;;;;;5.82;4.13;;;;;;;;;;5043538;28;20045;-57
2023/12/14 00:58:26;;;;;;;5.65;4.20;;;;;;;;;;5046477;28;20033;-58
2023/12/14 01:00:54;;;;;;;6.00;4.43;;;;;;;;;;5053757;28;20499;-57
2023/12/14 01:03:19;;;;;;;4.30;3.65;;;;;;;;;;5022982;28;20094;-58
2023/12/14 01:05:44;;;;;;;4.95;4.20;;;;;;;;;;5052624;28;20041;-56
2023/12/14 01:08:10;;;;;;;5.90;4.32;;;;;;;;;;5041446;28;20057;-56
2023/12/14 01:10:35;;;;;;;5.13;3.80;;;;;;;;;;5046290;28;20171;-56
2023/12/14 01:13:00;;;;;;;6.25;4.10;;;;;;;;;;5043165;28;20427;-56
2023/12/14 01:15:26;;;;;;;5.65;4.28;;;;;;;;;;5046367;28;20120;-56
2023/12/14 01:17:51;;;;;;;5.90;4.15;;;;;;;;;;5041159;28;20130;-56
2023/12/14 01:20:16;;;;;;;5.53;4.35;;;;;;;;;;5047327;28;20089;-57
2023/12/14 01:22:42;;;;;;;5.38;4.15;;;;;;;;;;5039639;28;20493;-56
2023/12/14 01:25:07;;;;;;;5.75;4.10;;;;;;;;;;5034177;28;20099;-56
2023/12/14 01:27:32;;;;;;;5.80;4.25;;;;;;;;;;5031075;28;20044;-57
2023/12/14 01:29:58;;;;;;;6.13;4.55;;;;;;;;;;5059388;28;20068;-56
2023/12/14 01:32:23;;;;;;;5.05;4.03;;;;;;;;;;5040752;28;20037;-57
2023/12/14 01:34:48;;;;;;;5.97;4.20;;;;;;;;;;5022691;28;20018;-57
2023/12/14 01:37:13;;;;;;;4.78;3.95;;;;;;;;;;5039769;28;20398;-57
2023/12/14 01:39:39;;;;;;;5.75;3.83;;;;;;;;;;5051931;28;20040;-58
2023/12/14 01:42:04;;;;;;;5.95;4.40;;;;;;;;;;5037999;28;20477;-57
2023/12/14 01:44:29;;;;;;;5.93;4.25;;;;;;;;;;5041845;28;20554;-57
2023/12/14 01:46:55;;;;;;;5.75;4.28;;;;;;;;;;5033069;28;20376;-57
2023/12/14 01:49:20;;;;;;;6.28;4.50;;;;;;;;;;5045433;28;20141;-58
2023/12/14 01:51:46;;;;;;;5.88;4.20;;;;;;;;;;5031609;28;20119;-57
2023/12/14 01:54:11;;;;;;;6.43;4.47;;;;;;;;;;5058667;28;20154;-57
2023/12/14 01:56:36;;;;;;;5.70;4.63;;;;;;;;;;5036531;28;20173;-57
2023/12/14 01:59:02;;;;;;;5.95;4.38;;;;;;;;;;5037213;28;20499;-57
2023/12/14 02:01:36;;;;;;;6.97;4.15;;;;;;;;;;5037707;28;20029;-58
2023/12/14 02:04:01;;;;;;;6.72;4.80;;;;;;;;;;5046894;28;20028;-57
2023/12/14 02:06:26;;;;;;;5.68;4.25;;;;;;;;;;5059874;28;20044;-57
2023/12/14 02:08:52;;;;;;;5.70;4.50;;;;;;;;;;5045832;28;20025;-57
2023/12/14 02:11:17;;;;;;;6.05;4.47;;;;;;;;;;5042961;28;20059;-57
2023/12/14 02:13:43;;;;;;;6.90;4.40;;;;;;;;;;5035794;28;20029;-57
2023/12/14 02:16:09;;;;;;;6.22;4.35;;;;;;;;;;5043543;28;20025;-57
2023/12/14 02:18:34;;;;;;;5.95;4.18;;;;;;;;;;5045041;28;20029;-57
2023/12/14 02:20:59;;;;;;;6.60;4.43;;;;;;;;;;5033105;28;20017;-57
2023/12/14 02:23:25;;;;;;;5.50;3.80;;;;;;;;;;5038195;28;20086;-57
2023/12/14 02:25:50;;;;;;;5.60;4.15;;;;;;;;;;5044195;28;20013;-57
2023/12/14 02:28:15;;;;;;;5.30;4.00;;;;;;;;;;5046057;28;20517;-57
2023/12/14 02:30:41;;;;;;;6.40;4.38;;;;;;;;;;5039746;28;20030;-57
2023/12/14 02:33:06;;;;;;;6.15;4.50;;;;;;;;;;5038863;28;20196;-57
2023/12/14 02:35:31;;;;;;;5.57;4.50;;;;;;;;;;5045702;28;20078;-58
2023/12/14 02:37:56;;;;;;;4.95;4.03;;;;;;;;;;5040165;28;20025;-57
2023/12/14 02:40:22;;;;;;;6.15;4.68;;;;;;;;;;5044704;28;20074;-57
2023/12/14 02:42:47;;;;;;;5.60;3.97;;;;;;;;;;5043530;28;20037;-57
2023/12/14 02:45:12;;;;;;;4.35;3.92;;;;;;;;;;5035018;28;20037;-57
2023/12/14 02:47:38;;;;;;;4.82;3.75;;;;;;;;;;5039665;28;20245;-58
2023/12/14 02:50:03;;;;;;;5.50;4.15;;;;;;;;;;5051098;28;20045;-57
2023/12/14 02:52:28;;;;;;;5.45;3.70;;;;;;;;;;5047106;28;20049;-57
2023/12/14 02:54:54;;;;;;;6.88;4.68;;;;;;;;;;5050500;28;20037;-58
2023/12/14 02:57:19;;;;;;;5.30;4.28;;;;;;;;;;5045968;28;20040;-57
2023/12/14 02:59:44;;;;;;;5.50;4.20;;;;;;;;;;5038338;28;20029;-57
2023/12/14 03:02:10;;;;;;;5.43;4.13;;;;;;;;;;5041401;28;20053;-57
2023/12/14 03:04:37;;;;;;;5.03;4.32;;;;;;;;;;5060731;28;20059;-57
2023/12/14 03:07:03;;;;;;;5.07;3.92;;;;;;;;;;5034092;28;20057;-57
2023/12/14 03:09:31;;;;;;;5.10;3.80;;;;;;;;;;5061725;28;20160;-57
2023/12/14 03:11:56;;;;;;;5.45;4.20;;;;;;;;;;5046755;28;20507;-57
2023/12/14 03:14:22;;;;;;;4.63;3.75;;;;;;;;;;5045102;28;20329;-57
2023/12/14 03:16:48;;;;;;;5.22;4.05;;;;;;;;;;5042370;28;20033;-57
2023/12/14 03:19:14;;;;;;;5.97;4.05;;;;;;;;;;5044032;28;20109;-57
2023/12/14 03:21:40;;;;;;;4.95;4.00;;;;;;;;;;5005031;28;20529;-57
2023/12/14 03:24:05;;;;;;;5.70;4.13;;;;;;;;;;5045772;28;20029;-57
2023/12/14 03:26:30;;;;;;;5.78;4.10;;;;;;;;;;5036718;28;20041;-57
2023/12/14 03:28:56;;;;;;;5.82;4.20;;;;;;;;;;5032588;28;20029;-57
2023/12/14 03:31:21;;;;;;;5.50;4.20;;;;;;;;;;5032006;28;20106;-57
2023/12/14 03:33:46;;;;;;;4.63;3.53;;;;;;;;;;5037870;28;20491;-57
2023/12/14 03:36:12;;;;;;;5.65;4.35;;;;;;;;;;5023159;28;20047;-58
2023/12/14 03:38:37;;;;;;;5.03;3.92;;;;;;;;;;5042080;28;20033;-58
2023/12/14 03:41:02;;;;;;;4.93;3.67;;;;;;;;;;5046338;28;20047;-58
2023/12/14 03:43:28;;;;;;;5.28;4.20;;;;;;;;;;5036415;28;20025;-58
2023/12/14 03:45:53;;;;;;;5.53;4.28;;;;;;;;;;5031212;28;20566;-58
2023/12/14 03:48:19;;;;;;;4.78;3.78;;;;;;;;;;5041330;28;20150;-58
2023/12/14 03:50:44;;;;;;;5.47;4.07;;;;;;;;;;5031428;28;20512;-58
2023/12/14 03:53:09;;;;;;;5.13;3.92;;;;;;;;;;5050123;28;20359;-58
2023/12/14 03:55:34;;;;;;;4.90;3.80;;;;;;;;;;5041149;28;20050;-58
2023/12/14 03:58:00;;;;;;;4.95;3.75;;;;;;;;;;5038106;28;20032;-57
2023/12/14 04:00:26;;;;;;;5.78;4.18;;;;;;;;;;5038364;28;20040;-57
2023/12/14 04:02:51;;;;;;;4.68;3.75;;;;;;;;;;5026764;28;20040;-58
2023/12/14 04:05:17;;;;;;;4.70;3.70;;;;;;;;;;5041404;28;20047;-58
2023/12/14 04:07:42;;;;;;;5.20;4.00;;;;;;;;;;5047462;28;20093;-58
2023/12/14 04:10:08;;;;;;;4.95;3.80;;;;;;;;;;5038931;28;20052;-57
2023/12/14 04:12:34;;;;;;;5.63;3.97;;;;;;;;;;5038949;28;20080;-58
2023/12/14 04:14:59;;;;;;;4.97;3.80;;;;;;;;;;5046146;28;20056;-58
2023/12/14 04:17:25;;;;;;;5.47;3.90;;;;;;;;;;5047666;28;20036;-58
2023/12/14 04:19:50;;;;;;;5.45;4.00;;;;;;;;;;5043368;28;20434;-58
2023/12/14 04:22:15;;;;;;;4.63;3.33;;;;;;;;;;5037851;28;20108;-58
2023/12/14 04:24:40;;;;;;;4.90;4.00;;;;;;;;;;5046156;28;20035;-58
2023/12/14 04:27:06;;;;;;;4.43;3.70;;;;;;;;;;5051464;28;20037;-58
2023/12/14 04:29:31;;;;;;;4.55;3.63;;;;;;;;;;5042651;28;20044;-58
2023/12/14 04:31:56;;;;;;;4.68;3.42;;;;;;;;;;5038120;28;20068;-58
2023/12/14 04:34:21;;;;;;;5.05;3.75;;;;;;;;;;5042552;28;20041;-58
2023/12/14 04:36:47;;;;;;;4.70;3.75;;;;;;;;;;5028710;28;20634;-58
2023/12/14 04:39:13;;;;;;;4.35;3.55;;;;;;;;;;5032974;28;20047;-58
2023/12/14 04:41:38;;;;;;;4.10;3.08;;;;;;;;;;5045403;28;20044;-58
2023/12/14 04:44:04;;;;;;;4.93;3.70;;;;;;;;;;5032920;28;20521;-58
2023/12/14 04:46:29;;;;;;;4.68;3.72;;;;;;;;;;5036454;28;20086;-58
2023/12/14 04:48:54;;;;;;;4.45;3.50;;;;;;;;;;5050205;28;20069;-58
2023/12/14 04:51:20;;;;;;;4.47;3.53;;;;;;;;;;5028198;28;20041;-58
2023/12/14 04:53:45;;;;;;;4.60;3.78;;;;;;;;;;5036332;28;20033;-58
2023/12/14 04:56:11;;;;;;;5.05;3.47;;;;;;;;;;5042373;28;20037;-58
2023/12/14 04:58:37;;;;;;;4.15;3.00;;;;;;;;;;5050620;28;20119;-58
2023/12/14 05:01:02;;;;;;;5.10;3.55;;;;;;;;;;5047450;28;20470;-58
2023/12/14 05:03:27;;;;;;;4.93;3.60;;;;;;;;;;5041383;28;20036;-58
2023/12/14 05:05:53;;;;;;;4.60;3.25;;;;;;;;;;5041139;28;20662;-58
2023/12/14 05:08:18;;;;;;;5.05;3.60;;;;;;;;;;5053106;28;20097;-58
2023/12/14 05:10:43;;;;;;;3.92;3.20;;;;;;;;;;5019438;28;20037;-58
2023/12/14 05:13:09;;;;;;;4.63;3.10;;;;;;;;;;5039244;28;20052;-57
2023/12/14 05:15:34;;;;;;;4.32;3.35;;;;;;;;;;5039249;28;20466;-55
2023/12/14 05:17:59;;;;;;;4.03;2.90;;;;;;;;;;5016989;28;20052;-56
2023/12/14 05:20:25;;;;;;;4.07;3.22;;;;;;;;;;5014519;28;20041;-56
2023/12/14 05:22:50;;;;;;;4.15;3.20;;;;;;;;;;5041936;28;20482;-56
2023/12/14 05:25:15;;;;;;;4.55;3.08;;;;;;;;;;5042745;28;20050;-56
2023/12/14 05:27:41;;;;;;;3.65;3.22;;;;;;;;;;5038288;28;20041;-56
2023/12/14 05:30:06;;;;;;;4.25;3.10;;;;;;;;;;5029676;28;20029;-56
2023/12/14 05:32:32;;;;;;;4.63;3.40;;;;;;;;;;5036263;28;20049;-56
2023/12/14 05:34:58;;;;;;;3.88;3.10;;;;;;;;;;5037027;28;20093;-57
2023/12/14 05:37:23;;;;;;;3.60;2.78;;;;;;;;;;5037318;28;20033;-55
2023/12/14 05:39:49;;;;;;;4.47;3.35;;;;;;;;;;5034706;28;20434;-55
2023/12/14 05:42:17;;;;;;;4.35;3.33;;;;;;;;;;5033873;28;20116;-55
2023/12/14 05:44:44;;;;;;;3.78;3.00;;;;;;;;;;5037554;28;20041;-57
2023/12/14 05:47:09;;;;;;;4.90;3.35;;;;;;;;;;5037080;28;20037;-56
2023/12/14 05:49:35;;;;;;;4.07;3.10;;;;;;;;;;4995573;28;20037;-55
2023/12/14 05:52:00;;;;;;;3.58;3.03;;;;;;;;;;5036709;28;20049;-56
2023/12/14 05:54:25;;;;;;;4.97;3.38;;;;;;;;;;5011794;28;20037;-57
2023/12/14 05:56:51;;;;;;;4.55;3.00;;;;;;;;;;5033417;28;20075;-57
2023/12/14 05:59:16;;;;;;;4.22;2.85;;;;;;;;;;5034887;28;20120;-56
2023/12/14 06:01:42;;;;;;;3.95;3.00;;;;;;;;;;5036092;28;20578;-56
2023/12/14 06:04:08;;;;;;;4.53;2.72;;;;;;;;;;5028524;28;20048;-57
2023/12/14 06:06:33;;;;;;;3.65;2.60;;;;;;;;;;5035115;28;20033;-56
2023/12/14 06:08:58;;;;;;;4.07;2.88;;;;;;;;;;5038120;28;20112;-56
2023/12/14 06:11:24;;;;;;;3.30;2.60;;;;;;;;;;5038146;28;20117;-56
2023/12/14 06:13:49;;;;;;;3.53;2.85;;;;;;;;;;5019062;28;20036;-57
2023/12/14 06:16:14;;;;;;;4.65;2.60;;;;;;;;;;5037647;28;20037;-56
2023/12/14 06:18:41;;;;;;;4.00;3.03;;;;;;;;;;5036671;28;20037;-56
2023/12/14 06:21:07;;;;;;;3.65;2.80;;;;;;;;;;5022971;28;20051;-56
2023/12/14 06:23:32;;;;;;;4.18;3.13;;;;;;;;;;5039929;28;20132;-57
2023/12/14 06:25:58;;;;;;;4.78;3.20;;;;;;;;;;5035765;28;20040;-56
2023/12/14 06:28:24;;;;;;;4.32;3.30;;;;;;;;;;5034595;28;20741;-56
2023/12/14 06:30:49;;;;;;;3.65;2.70;;;;;;;;;;5035715;28;20045;-56
2023/12/14 06:33:14;;;;;;;3.60;2.83;;;;;;;;;;5035265;28;20116;-56
2023/12/14 06:35:40;;;;;;;4.03;2.85;;;;;;;;;;5034337;28;20033;-57
2023/12/14 06:38:05;;;;;;;3.83;2.75;;;;;;;;;;5040029;28;20810;-56
2023/12/14 06:40:30;;;;;;;3.30;2.42;;;;;;;;;;5036130;28;20025;-55
2023/12/14 06:42:56;;;;;;;3.55;2.65;;;;;;;;;;5025591;28;20364;-56
2023/12/14 06:45:21;;;;;;;3.70;2.75;;;;;;;;;;5028208;28;20565;-56
2023/12/14 06:47:47;;;;;;;3.75;2.75;;;;;;;;;;5034779;28;20033;-55
2023/12/14 06:50:13;;;;;;;3.60;2.80;;;;;;;;;;5036119;28;20061;-56
2023/12/14 06:52:39;;;;;;;3.78;2.85;;;;;;;;;;5036011;28;20061;-54
2023/12/14 06:55:04;;;;;;;4.10;2.67;;;;;;;;;;5036128;28;20037;-56
2023/12/14 06:57:29;;;;;;;3.30;2.50;;;;;;;;;;5034784;28;20082;-56
2023/12/14 06:59:55;;;;;;;4.13;2.65;;;;;;;;;;5034375;28;20029;-56
2023/12/14 07:02:20;;;;;;;3.75;2.35;;;;;;;;;;5031642;28;20045;-56
2023/12/14 07:04:46;;;;;;;4.10;2.30;;;;;;;;;;5031430;28;20029;-56
2023/12/14 07:07:12;;;;;;;3.33;2.40;;;;;;;;;;5032192;28;20040;-56
2023/12/14 07:09:38;;;;;;;3.22;2.30;;;;;;;;;;5034868;28;20041;-56
2023/12/14 07:12:03;;;;;;;3.42;2.38;;;;;;;;;;5033431;28;20134;-56
2023/12/14 07:14:29;;;;;;;3.72;2.72;;;;;;;;;;5036527;28;20041;-56
2023/12/14 07:16:54;;;;;;;3.90;2.45;;;;;;;;;;5036778;28;20033;-56
2023/12/14 07:19:20;;;;;;;3.83;2.78;;;;;;;;;;5036786;28;20041;-56
2023/12/14 07:21:45;;;;;;;3.42;2.60;;;;;;;;;;5036447;28;20036;-56
2023/12/14 07:24:10;;;;;;;3.67;2.63;;;;;;;;;;5036236;28;20037;-56
2023/12/14 07:26:36;;;;;;;4.07;2.92;;;;;;;;;;5033108;28;20053;-56
2023/12/14 07:29:01;;;;;;;3.65;2.28;;;;;;;;;;5038125;28;20039;-57
2023/12/14 07:31:28;;;;;;;4.18;2.42;;;;;;;;;;5017674;28;20168;-57
2023/12/14 07:33:54;;;;;;;4.53;2.72;;;;;;;;;;5035147;28;20033;-57
2023/12/14 07:36:19;;;;;;;3.13;2.40;;;;;;;;;;5013064;28;20041;-57
2023/12/14 07:38:45;;;;;;;2.88;2.10;;;;;;;;;;5035555;28;20033;-56
2023/12/14 07:41:10;;;;;;;3.80;2.40;;;;;;;;;;5017622;28;20442;-57
2023/12/14 07:43:35;;;;;;;3.25;2.40;;;;;;;;;;5036874;28;20051;-56
2023/12/14 07:46:01;;;;;;;3.08;2.40;;;;;;;;;;5035537;28;20079;-65
2023/12/14 07:48:28;;;;;;;4.22;2.45;;;;;;;;;;5035905;28;20131;-59
2023/12/14 07:50:53;;;;;;;3.50;2.45;;;;;;;;;;5037166;28;20610;-60
2023/12/14 07:53:19;;;;;;;3.80;2.40;;;;;;;;;;5026740;28;20720;-60
2023/12/14 07:55:44;;;;;;;3.75;2.55;;;;;;;;;;5036092;28;20118;-60
2023/12/14 07:58:09;;;;;;;4.13;2.50;;;;;;;;;;5036640;28;20146;-59
2023/12/14 08:00:35;;;;;;;3.33;2.38;;;;;;;;;;5032082;28;20033;-60
2023/12/14 08:03:00;;;;;;;3.33;2.38;;;;;;;;;;5032375;28;20679;-60
2023/12/14 08:05:26;;;;;;;3.72;2.30;;;;;;;;;;5036165;28;20064;-60
2023/12/14 08:07:52;;;;;;;4.28;2.40;;;;;;;;;;5025054;28;20033;-60
2023/12/14 08:10:17;;;;;;;3.38;2.65;;;;;;;;;;5028913;28;20199;-59
2023/12/14 08:12:43;;;;;;;4.05;2.20;;;;;;;;;;5035120;28;20759;-59
2023/12/14 08:15:08;;;;;;;4.22;2.75;;;;;;;;;;5035333;28;20241;-59
2023/12/14 08:17:33;;;;;;;3.30;2.30;;;;;;;;;;5037376;28;20045;-59
2023/12/14 08:19:59;;;;;;;2.97;2.38;;;;;;;;;;5034544;28;20037;-59
2023/12/14 08:22:24;;;;;;;3.70;2.28;;;;;;;;;;5035258;28;20043;-59
2023/12/14 08:24:50;;;;;;;3.17;2.33;;;;;;;;;;5034676;28;20039;-59
2023/12/14 08:27:15;;;;;;;3.20;2.35;;;;;;;;;;5033357;28;20037;-60
2023/12/14 08:29:40;;;;;;;3.22;2.13;;;;;;;;;;5036065;28;20033;-59
2023/12/14 08:32:06;;;;;;;2.88;2.10;;;;;;;;;;5035314;28;20057;-59
2023/12/14 08:34:31;;;;;;;3.60;2.33;;;;;;;;;;5037444;28;20566;-60
2023/12/14 08:36:56;;;;;;;4.00;2.25;;;;;;;;;;5034432;28;20033;-59
2023/12/14 08:39:22;;;;;;;4.00;2.70;;;;;;;;;;5037371;28;20079;-59
2023/12/14 08:41:48;;;;;;;3.70;2.35;;;;;;;;;;5038822;28;20087;-61
2023/12/14 08:44:14;;;;;;;2.67;2.03;;;;;;;;;;5040228;28;20087;-60
2023/12/14 08:46:43;;;;;;;3.22;2.33;;;;;;;;;;5019954;28;20040;-60
2023/12/14 08:49:08;;;;;;;5.17;2.60;;;;;;;;;;5043059;28;20541;-59
2023/12/14 08:51:33;;;;;;;3.10;2.10;;;;;;;;;;5040737;28;20061;-61
2023/12/14 08:53:59;;;;;;;3.13;2.05;;;;;;;;;;5035902;28;20131;-62
2023/12/14 08:56:24;;;;;;;3.40;2.28;;;;;;;;;;5037213;28;20108;-60
2023/12/14 08:58:49;;;;;;;3.13;2.10;;;;;;;;;;5037936;28;20045;-60
2023/12/14 09:01:21;;;;;;;3.10;2.20;;;;;;;;;;5041344;28;20041;-60
2023/12/14 09:03:47;;;;;;;3.10;1.95;;;;;;;;;;5037143;28;20041;-59
2023/12/14 09:06:12;;;;;;;4.20;2.15;;;;;;;;;;5020794;28;20043;-60
2023/12/14 09:08:37;;;;;;;3.75;2.35;;;;;;;;;;5021343;28;20144;-60
2023/12/14 09:11:03;;;;;;;2.55;2.00;;;;;;;;;;5038606;28;20037;-61
2023/12/14 09:13:29;;;;;;;3.10;2.10;;;;;;;;;;5038589;28;20041;-62
2023/12/14 09:15:54;;;;;;;3.28;2.40;;;;;;;;;;5037341;28;20041;-61
2023/12/14 09:18:21;;;;;;;3.78;2.28;;;;;;;;;;5038694;28;20060;-60
2023/12/14 09:20:47;;;;;;;4.28;2.40;;;;;;;;;;5037467;28;20575;-61
2023/12/14 09:23:12;;;;;;;3.40;2.13;;;;;;;;;;5024686;28;20041;-60
2023/12/14 09:25:38;;;;;;;3.25;2.33;;;;;;;;;;4996443;28;20029;-59
2023/12/14 09:28:03;;;;;;;2.97;1.77;;;;;;;;;;5036850;28;20037;-61
2023/12/14 09:30:28;;;;;;;2.55;1.73;;;;;;;;;;5040390;28;20044;-60
2023/12/14 09:32:54;;;;;;;2.80;2.05;;;;;;;;;;5034430;28;20284;-59
2023/12/14 09:35:19;;;;;;;2.80;1.85;;;;;;;;;;5037203;28;20052;-60
2023/12/14 09:37:44;;;;;;;3.17;2.30;;;;;;;;;;5036216;28;20461;-60
2023/12/14 09:40:11;;;;;;;2.85;2.10;;;;;;;;;;5037218;28;20973;-59
2023/12/14 09:42:37;;;;;;;2.80;1.90;;;;;;;;;;5038147;28;20481;-60
2023/12/14 09:45:03;;;;;;;3.03;2.10;;;;;;;;;;5020358;28;20044;-60
2023/12/14 09:47:28;;;;;;;3.72;2.25;;;;;;;;;;5038108;28;20029;-60
2023/12/14 09:49:54;;;;;;;2.90;2.03;;;;;;;;;;5038749;28;20689;-60
2023/12/14 09:52:19;;;;;;;3.33;2.00;;;;;;;;;;5028515;28;20057;-60
2023/12/14 09:54:44;;;;;;;3.10;2.28;;;;;;;;;;5025574;28;20035;-60
2023/12/14 09:57:10;;;;;;;2.80;1.95;;;;;;;;;;5037958;28;20048;-59
2023/12/14 09:59:36;;;;;;;3.65;2.00;;;;;;;;;;5038380;28;20029;-60
2023/12/14 10:02:11;;;;;;;2.40;1.92;;;;;;;;;;5038477;28;20521;-60
2023/12/14 10:04:37;;;;;;;2.80;1.90;;;;;;;;;;5035191;28;20120;-60
2023/12/14 10:07:06;;;;;;;3.03;1.70;;;;;;;;;;5038675;28;20583;-60
2023/12/14 10:09:32;;;;;;;3.05;1.83;;;;;;;;;;5037424;28;20464;-59
2023/12/14 10:12:06;;;;;;;2.75;1.92;;;;;;;;;;5035990;28;20137;-60
2023/12/14 10:14:32;;;;;;;3.15;2.30;;;;;;;;;;5035876;28;20133;-61
2023/12/14 10:16:57;;;;;;;2.88;2.00;;;;;;;;;;5038267;28;20116;-59
2023/12/14 10:19:23;;;;;;;3.80;2.20;;;;;;;;;;5026028;28;20115;-59
2023/12/14 10:21:48;;;;;;;3.15;2.00;;;;;;;;;;5036655;28;20164;-59
2023/12/14 10:24:14;;;;;;;3.35;2.08;;;;;;;;;;5037111;28;20046;-60
2023/12/14 10:26:40;;;;;;;4.22;1.98;;;;;;;;;;5017608;28;20029;-59
2023/12/14 10:29:06;;;;;;;2.97;2.00;;;;;;;;;;5033921;28;20026;-59
2023/12/14 10:31:31;;;;;;;4.55;2.08;;;;;;;;;;5035609;28;20494;-59
2023/12/14 10:33:56;;;;;;;2.83;2.00;;;;;;;;;;5036679;28;20021;-59
2023/12/14 10:36:24;;;;;;;2.70;1.98;;;;;;;;;;5033581;28;20029;-58
2023/12/14 10:38:50;;;;;;;2.92;2.00;;;;;;;;;;5036916;28;20017;-58
2023/12/14 10:41:15;;;;;;;3.08;2.00;;;;;;;;;;5033302;28;20026;-59
2023/12/14 10:43:41;;;;;;;3.70;2.03;;;;;;;;;;5032210;28;20037;-59
2023/12/14 10:46:07;;;;;;;3.10;2.10;;;;;;;;;;5017452;28;20017;-59
2023/12/14 10:48:32;;;;;;;3.92;1.98;;;;;;;;;;5033297;28;20021;-59
2023/12/14 10:50:58;;;;;;;2.80;2.00;;;;;;;;;;5037410;28;20044;-59
2023/12/14 10:53:23;;;;;;;3.20;2.20;;;;;;;;;;5036087;28;20656;-59
2023/12/14 10:55:51;;;;;;;4.07;1.90;;;;;;;;;;5033983;28;20036;-59
2023/12/14 10:58:16;;;;;;;3.25;1.98;;;;;;;;;;5036364;28;20048;-58
2023/12/14 11:00:42;;;;;;;3.60;2.10;;;;;;;;;;5016610;28;20041;-58
2023/12/14 11:03:07;;;;;;;4.13;2.10;;;;;;;;;;5034678;28;20643;-59
2023/12/14 11:05:33;;;;;;;3.35;2.30;;;;;;;;;;5035215;28;20044;-58
2023/12/14 11:08:12;;;;;;;2.92;2.03;;;;;;;;;;5014140;28;20045;-58
2023/12/14 11:10:38;;;;;;;2.63;1.80;;;;;;;;;;5034335;28;20049;-58
2023/12/14 11:13:06;;;;;;;2.78;2.00;;;;;;;;;;5029900;28;20048;-58
2023/12/14 11:15:34;;;;;;;3.60;1.92;;;;;;;;;;5033257;28;20120;-58
2023/12/14 11:18:11;;;;;;;3.22;2.10;;;;;;;;;;5031164;28;20059;-58
2023/12/14 11:20:46;;;;;;;3.55;2.40;;;;;;;;;;5033351;28;20049;-58
2023/12/14 11:23:13;;;;;;;3.00;2.38;;;;;;;;;;5033652;28;20033;-59
2023/12/14 11:25:39;;;;;;;2.55;1.95;;;;;;;;;;5012399;28;20040;-58
2023/12/14 11:28:05;;;;;;;3.67;2.00;;;;;;;;;;5036986;28;20037;-59
2023/12/14 11:30:31;;;;;;;2.88;2.08;;;;;;;;;;5014077;28;20067;-57
2023/12/14 11:32:57;;;;;;;3.00;2.08;;;;;;;;;;5032813;28;20455;-58
2023/12/14 11:35:22;;;;;;;3.42;2.10;;;;;;;;;;5033156;28;20597;-58
2023/12/14 11:37:47;;;;;;;2.97;2.00;;;;;;;;;;5034939;28;20064;-58
2023/12/14 11:40:16;;;;;;;2.85;2.00;;;;;;;;;;5033028;28;20115;-57
2023/12/14 11:42:41;;;;;;;3.40;2.38;;;;;;;;;;5033870;28;20037;-58
2023/12/14 11:45:06;;;;;;;3.60;2.00;;;;;;;;;;5033725;28;20036;-59
2023/12/14 11:47:32;;;;;;;3.03;2.10;;;;;;;;;;5008088;28;20045;-57
2023/12/14 11:49:57;;;;;;;3.45;2.10;;;;;;;;;;5028998;28;20576;-58
2023/12/14 11:52:22;;;;;;;3.72;1.90;;;;;;;;;;5025802;28;20137;-59
2023/12/14 11:54:48;;;;;;;3.15;2.00;;;;;;;;;;5036422;28;20118;-58
2023/12/14 11:57:13;;;;;;;3.15;2.05;;;;;;;;;;5038814;28;20056;-59
2023/12/14 11:59:38;;;;;;;3.70;2.00;;;;;;;;;;5037272;28;20422;-58
2023/12/14 12:02:03;;;;;;;2.92;2.17;;;;;;;;;;4988924;28;1244371;-58
2023/12/14 12:04:29;;;;;;;2.80;1.95;;;;;;;;;;5040605;28;20067;-57
2023/12/14 12:06:59;;;;;;;3.42;2.08;;;;;;;;;;5037385;28;20052;-59
2023/12/14 12:09:34;;;;;;;2.88;1.70;;;;;;;;;;5017950;28;20040;-58
2023/12/14 12:11:59;;;;;;;2.92;2.08;;;;;;;;;;5037118;28;20051;-58
2023/12/14 12:14:24;;;;;;;2.83;2.08;;;;;;;;;;5037246;28;20038;-58
2023/12/14 12:16:52;;;;;;;2.83;1.90;;;;;;;;;;5016623;28;20037;-58
2023/12/14 12:19:18;;;;;;;4.25;2.03;;;;;;;;;;5042992;28;20033;-57
2023/12/14 12:21:43;;;;;;;2.85;1.80;;;;;;;;;;5041516;28;20041;-58
2023/12/14 12:24:08;;;;;;;3.17;1.90;;;;;;;;;;5034777;28;20126;-58
2023/12/14 12:26:34;;;;;;;2.78;1.90;;;;;;;;;;5043562;28;20040;-57
2023/12/14 12:28:59;;;;;;;3.35;2.10;;;;;;;;;;5042676;28;20045;-57
2023/12/14 12:31:24;;;;;;;2.05;1.50;;;;;;;;;;5039831;28;20037;-57
2023/12/14 12:33:50;;;;;;;2.47;1.50;;;;;;;;;;5032293;28;20076;-58
2023/12/14 12:36:15;;;;;;;2.42;1.52;;;;;;;;;;5038688;28;20531;-58
2023/12/14 12:38:40;;;;;;;4.07;1.92;;;;;;;;;;5045750;28;20044;-58
2023/12/14 12:41:06;;;;;;;2.75;1.92;;;;;;;;;;5041524;28;20068;-59
2023/12/14 12:43:31;;;;;;;3.50;1.95;;;;;;;;;;5043497;28;20048;-58
2023/12/14 12:45:58;;;;;;;2.67;1.70;;;;;;;;;;5040509;28;20558;-59
2023/12/14 12:48:23;;;;;;;2.97;1.88;;;;;;;;;;5045756;28;20045;-59
2023/12/14 12:50:49;;;;;;;3.53;1.80;;;;;;;;;;5049745;28;20033;-58
2023/12/14 12:53:14;;;;;;;2.58;1.95;;;;;;;;;;5039837;28;20518;-59
2023/12/14 12:55:40;;;;;;;2.53;1.90;;;;;;;;;;5044867;28;20036;-59
2023/12/14 12:58:06;;;;;;;2.50;1.70;;;;;;;;;;5044945;28;20426;-58
2023/12/14 13:00:35;;;;;;;2.42;1.80;;;;;;;;;;5047669;28;20043;-59
2023/12/14 13:03:02;;;;;;;2.42;1.70;;;;;;;;;;5034500;28;20383;-59
2023/12/14 13:05:27;;;;;;;2.95;2.00;;;;;;;;;;5041502;28;20033;-58
2023/12/14 13:07:54;;;;;;;2.47;1.83;;;;;;;;;;5042586;28;20095;-59
2023/12/14 13:10:22;;;;;;;2.85;1.70;;;;;;;;;;5022763;28;20067;-58
2023/12/14 13:12:47;;;;;;;2.78;1.67;;;;;;;;;;5046533;28;20068;-58
2023/12/14 13:15:13;;;;;;;2.45;1.60;;;;;;;;;;5024491;28;20060;-58
2023/12/14 13:17:38;;;;;;;2.30;1.58;;;;;;;;;;5026582;28;20105;-59
2023/12/14 13:20:06;;;;;;;2.22;1.50;;;;;;;;;;5029987;28;20482;-57
2023/12/14 13:22:31;;;;;;;3.03;1.70;;;;;;;;;;5025178;28;20033;-58
2023/12/14 13:24:56;;;;;;;2.40;1.50;;;;;;;;;;5046048;28;20044;-58
2023/12/14 13:27:23;;;;;;;2.45;1.45;;;;;;;;;;5045106;28;20036;-57
2023/12/14 13:29:49;;;;;;;2.92;1.42;;;;;;;;;;5041428;28;20041;-57
2023/12/14 13:32:14;;;;;;;2.58;1.48;;;;;;;;;;5040448;28;20095;-57
2023/12/14 13:34:39;;;;;;;2.45;1.45;;;;;;;;;;5033189;28;20110;-57
2023/12/14 13:37:05;;;;;;;2.58;1.60;;;;;;;;;;5041246;28;20467;-57
2023/12/14 13:39:33;;;;;;;2.78;1.67;;;;;;;;;;5041676;28;20114;-58
2023/12/14 13:41:59;;;;;;;1.98;1.40;;;;;;;;;;5030554;28;20613;-58
2023/12/14 13:44:24;;;;;;;1.70;1.25;;;;;;;;;;5040883;28;20060;-58
2023/12/14 13:46:49;;;;;;;1.90;1.13;;;;;;;;;;5018373;28;20167;-59
2023/12/14 13:49:15;;;;;;;2.28;1.40;;;;;;;;;;5039188;28;20140;-58
2023/12/14 13:51:40;;;;;;;1.95;1.30;;;;;;;;;;5035251;28;20108;-59
2023/12/14 13:54:05;;;;;;;2.28;1.38;;;;;;;;;;5036945;28;20308;-59
2023/12/14 13:56:31;;;;;;;2.55;1.40;;;;;;;;;;5038325;28;20041;-59
2023/12/14 13:58:56;;;;;;;2.05;1.30;;;;;;;;;;5039915;28;20047;-58
2023/12/14 14:01:21;;;;;;;2.67;1.48;;;;;;;;;;5020611;28;20037;-59
2023/12/14 14:03:47;;;;;;;1.73;1.30;;;;;;;;;;5038536;28;20047;-60
2023/12/14 14:06:12;;;;;;;2.50;1.30;;;;;;;;;;5041767;28;20040;-59
2023/12/14 14:08:37;;;;;;;2.22;1.20;;;;;;;;;;5017241;28;20086;-58
2023/12/14 14:11:03;;;;;;;2.47;1.27;;;;;;;;;;5033828;28;20462;-59
2023/12/14 14:13:28;;;;;;;3.28;1.30;;;;;;;;;;5038629;28;20435;-59
2023/12/14 14:15:54;;;;;;;1.90;1.20;;;;;;;;;;5019304;28;20044;-58
2023/12/14 14:18:19;;;;;;;2.40;1.42;;;;;;;;;;5037914;28;20116;-59
2023/12/14 14:20:45;;;;;;;2.28;1.40;;;;;;;;;;5039150;28;20111;-59
2023/12/14 14:23:10;;;;;;;2.05;1.30;;;;;;;;;;5038968;28;20132;-59
2023/12/14 14:25:35;;;;;;;1.83;1.15;;;;;;;;;;5038652;28;21030;-58
2023/12/14 14:28:01;;;;;;;2.15;1.38;;;;;;;;;;5033128;28;20496;-60
2023/12/14 14:30:26;;;;;;;2.70;1.33;;;;;;;;;;5039823;28;20037;-59
2023/12/14 14:32:51;;;;;;;2.08;1.10;;;;;;;;;;5036778;28;20069;-59